Affton, Missouri
Current Conditions -  °F | °C
As of 11:53 PM on Thursday 27 Nov 2014 (Local Time) from KCPS Reporting Station
Clear Clear  
Wind Chill: 18°   Ceiling: Unl
Heat Index: 26°   Visibility: 10mi
Dew Point: 20°   Wind: 8mph
Humidity: 78%   Direction: 130°SE
Pressure: 30.43"   Gusts: NA
Location:  38.55°N, 90.33°W
Report Text: KCPS 280553Z AUTO 13007KT 10SM CLR M03/M07 A3043 RMK AO2 SLP310 T10331067 11011 21039 400111039 58009 TSNO
Loading
Personal Weather Stations






























Interactive Weather Map New forecast layout! Learn more

10-Day Weather Forecast

Advertisements
Track Severe Weather on mobile